createdAt,value
2023-04-12T00:00:17.816Z,7.70
2023-04-12T00:03:21.374Z,7.59
2023-04-12T00:06:32.469Z,7.88
2023-04-12T00:09:36.491Z,7.53
2023-04-12T00:12:43.081Z,7.53
2023-04-12T00:15:45.413Z,7.50
2023-04-12T00:18:47.511Z,7.40
2023-04-12T00:21:50.197Z,7.34
2023-04-12T00:24:53.627Z,7.44
2023-04-12T00:27:56.248Z,7.15
2023-04-12T00:30:58.276Z,7.36
2023-04-12T00:34:01.472Z,7.49
2023-04-12T00:37:04.054Z,7.72
2023-04-12T00:40:10.112Z,7.71
2023-04-12T00:43:19.080Z,7.21
2023-04-12T00:46:21.425Z,7.33
2023-04-12T00:49:23.832Z,7.67
2023-04-12T00:52:28.188Z,7.14
2023-04-12T00:55:30.863Z,7.10
2023-04-12T00:58:35.851Z,7.63
2023-04-12T01:01:41.414Z,7.25
2023-04-12T01:04:44.168Z,7.41
2023-04-12T01:07:51.716Z,7.47
2023-04-12T01:10:57.988Z,7.17
2023-04-12T01:14:02.641Z,7.27
2023-04-12T01:17:10.515Z,7.41
2023-04-12T01:20:17.188Z,7.03
2023-04-12T01:23:22.283Z,7.17
2023-04-12T01:26:45.874Z,7.12
2023-04-12T01:29:50.100Z,7.31
2023-04-12T01:32:52.973Z,7.11
2023-04-12T01:35:55.079Z,7.65
2023-04-12T01:38:57.336Z,7.52
2023-04-12T01:41:59.632Z,7.10
2023-04-12T01:45:03.322Z,7.38
2023-04-12T01:48:09.794Z,7.20
2023-04-12T01:51:15.143Z,7.39
2023-04-12T01:54:22.665Z,7.03
2023-04-12T01:57:25.029Z,7.47
2023-04-12T02:00:27.330Z,7.26
2023-04-12T02:03:30.756Z,7.35
2023-04-12T02:06:33.490Z,7.55
2023-04-12T02:09:39.413Z,7.50
2023-04-12T02:12:41.683Z,6.68
2023-04-12T02:15:44.221Z,6.74
2023-04-12T02:18:46.568Z,7.01
2023-04-12T02:21:48.816Z,6.95
2023-04-12T02:24:51.061Z,7.25
2023-04-12T02:27:53.446Z,7.52
2023-04-12T02:30:55.905Z,7.29
2023-04-12T02:33:58.334Z,7.22
2023-04-12T02:37:00.612Z,6.75
2023-04-12T02:40:06.056Z,7.16
2023-04-12T02:43:09.539Z,7.55
2023-04-12T02:46:14.368Z,6.70
2023-04-12T02:49:16.724Z,6.83
2023-04-12T02:52:19.084Z,6.73
2023-04-12T02:55:22.189Z,6.69
2023-04-12T02:58:24.454Z,6.55
2023-04-12T03:01:26.901Z,6.62
2023-04-12T03:04:30.574Z,6.67
2023-04-12T03:07:35.020Z,6.73
2023-04-12T03:10:37.450Z,7.04
2023-04-12T03:13:39.757Z,7.29
2023-04-12T03:16:41.624Z,6.78
2023-04-12T03:19:46.514Z,6.95
2023-04-12T03:22:48.829Z,6.71
2023-04-12T03:25:51.233Z,7.05
2023-04-12T03:29:05.389Z,7.22
2023-04-12T03:32:08.280Z,6.61
2023-04-12T03:35:12.636Z,7.07
2023-04-12T03:38:16.868Z,6.86
2023-04-12T03:41:18.754Z,6.98
2023-04-12T03:44:21.384Z,6.78
2023-04-12T03:47:23.978Z,6.93
2023-04-12T03:50:29.693Z,6.92
2023-04-12T03:53:32.491Z,7.10
2023-04-12T03:56:34.896Z,6.90
2023-04-12T03:59:38.445Z,7.28
2023-04-12T04:02:41.667Z,7.74
2023-04-12T04:05:43.622Z,7.57
2023-04-12T04:08:45.483Z,7.64
2023-04-12T04:11:47.456Z,7.91
2023-04-12T04:14:50.669Z,8.17
2023-04-12T04:17:52.830Z,8.37
2023-04-12T04:20:55.262Z,8.39
2023-04-12T04:23:59.061Z,8.16
2023-04-12T04:27:01.668Z,8.24
2023-04-12T04:30:05.147Z,8.26
2023-04-12T04:33:08.101Z,8.54
2023-04-12T04:36:10.328Z,8.39
2023-04-12T04:39:12.308Z,8.62
2023-04-12T04:42:14.232Z,7.47
2023-04-12T04:45:16.098Z,8.06
2023-04-12T04:48:19.181Z,7.88
2023-04-12T04:51:24.142Z,7.66
2023-04-12T04:54:26.457Z,7.96
2023-04-12T04:57:28.802Z,7.80
2023-04-12T05:00:31.300Z,7.89
2023-04-12T05:03:34.790Z,8.61
2023-04-12T05:06:37.074Z,9.89
2023-04-12T05:09:39.605Z,9.66
2023-04-12T05:12:41.919Z,9.33
2023-04-12T05:15:44.286Z,9.70
2023-04-12T05:18:46.593Z,10.25
2023-04-12T05:21:51.192Z,10.95
2023-04-12T05:24:53.637Z,11.13
2023-04-12T05:27:56.390Z,10.45
2023-04-12T05:30:58.988Z,10.81
2023-04-12T05:34:01.014Z,10.95
2023-04-12T05:37:04.228Z,11.56
2023-04-12T05:40:08.909Z,11.20
2023-04-12T05:43:19.079Z,10.76
2023-04-12T05:46:28.137Z,11.16
2023-04-12T05:49:36.603Z,10.41
2023-04-12T05:52:41.977Z,11.18
2023-04-12T05:55:45.441Z,11.44
2023-04-12T05:58:58.183Z,11.66
2023-04-12T06:02:05.497Z,11.87
2023-04-12T06:05:17.336Z,12.14
2023-04-12T06:08:20.205Z,13.61
2023-04-12T06:11:26.636Z,13.26
2023-04-12T06:14:33.187Z,13.04
2023-04-12T06:20:56.041Z,12.75
2023-04-12T06:23:58.056Z,12.91
2023-04-12T06:26:59.928Z,13.76
2023-04-12T06:30:01.925Z,12.64
2023-04-12T06:33:03.988Z,12.39
2023-04-12T06:36:08.798Z,12.67
2023-04-12T06:39:12.218Z,13.40
2023-04-12T06:42:14.856Z,13.36
2023-04-12T06:45:17.500Z,13.12
2023-04-12T06:48:22.036Z,11.91
2023-04-12T06:51:24.187Z,12.67
2023-04-12T06:54:26.528Z,15.81
2023-04-12T06:57:28.604Z,15.49
2023-04-12T07:00:30.771Z,15.84
2023-04-12T07:03:35.939Z,14.31
2023-04-12T07:06:38.029Z,14.17
2023-04-12T07:09:40.531Z,14.43
2023-04-12T07:12:42.502Z,14.59
2023-04-12T07:15:44.677Z,14.71
2023-04-12T07:18:46.801Z,15.10
2023-04-12T07:21:51.197Z,15.25
2023-04-12T07:24:53.334Z,13.65
2023-04-12T07:27:55.816Z,15.93
2023-04-12T07:30:57.763Z,15.57
2023-04-12T07:33:59.730Z,15.22
2023-04-12T07:37:01.734Z,14.65
2023-04-12T07:40:03.948Z,15.81
2023-04-12T07:43:08.272Z,17.01
2023-04-12T07:46:10.884Z,16.78
2023-04-12T07:49:12.871Z,16.41
2023-04-12T07:52:14.792Z,17.74
2023-04-12T07:55:16.763Z,17.09
2023-04-12T07:58:18.991Z,17.29
2023-04-12T08:01:22.315Z,16.32
2023-04-12T08:04:24.929Z,16.53
2023-04-12T08:07:27.614Z,14.76
2023-04-12T08:10:29.774Z,15.68
2023-04-12T08:13:32.059Z,16.19
2023-04-12T08:16:34.889Z,16.97
2023-04-12T08:19:37.199Z,15.42
2023-04-12T08:22:39.687Z,16.25
2023-04-12T08:25:44.869Z,15.52
2023-04-12T08:28:47.384Z,17.35
2023-04-12T08:31:49.433Z,17.90
2023-04-12T08:34:51.685Z,17.44
2023-04-12T08:37:53.589Z,16.37
2023-04-12T08:40:57.796Z,16.25
2023-04-12T08:43:59.988Z,17.21
2023-04-12T08:47:03.018Z,18.10
2023-04-12T08:50:09.539Z,17.42
2023-04-12T08:53:12.168Z,18.45
2023-04-12T08:56:14.762Z,17.89
2023-04-12T08:59:16.682Z,19.40
2023-04-12T09:02:18.736Z,19.52
2023-04-12T09:05:23.237Z,17.36
2023-04-12T09:08:25.696Z,20.05
2023-04-12T09:11:28.015Z,17.98
2023-04-12T09:14:29.998Z,18.65
2023-04-12T09:17:34.090Z,17.70
2023-04-12T09:20:37.028Z,19.56
2023-04-12T09:23:39.151Z,19.61
2023-04-12T09:26:43.859Z,19.95
2023-04-12T09:29:52.513Z,17.82
2023-04-12T09:32:55.836Z,19.03
2023-04-12T09:36:02.130Z,20.84
2023-04-12T09:39:05.318Z,19.31
2023-04-12T09:42:18.087Z,21.00
2023-04-12T09:45:30.332Z,21.33
2023-04-12T09:48:32.257Z,19.35
2023-04-12T09:51:34.361Z,17.66
2023-04-12T09:54:39.775Z,18.41
2023-04-12T09:57:42.240Z,18.88
2023-04-12T10:00:44.309Z,20.29
2023-04-12T10:03:46.780Z,19.73
2023-04-12T10:06:48.972Z,21.44
2023-04-12T10:09:51.084Z,20.19
2023-04-12T10:12:55.582Z,21.48
2023-04-12T10:15:59.995Z,23.75
2023-04-12T10:19:02.370Z,23.81
2023-04-12T10:22:04.445Z,21.25
2023-04-12T10:25:09.524Z,20.56
2023-04-12T10:28:15.481Z,21.84
2023-04-12T10:31:27.091Z,24.07
2023-04-12T10:34:33.391Z,24.64
2023-04-12T10:37:54.161Z,23.44
2023-04-12T10:41:15.564Z,23.40
2023-04-12T10:44:24.670Z,19.19
2023-04-12T10:48:06.737Z,22.92
2023-04-12T10:51:23.545Z,21.53
2023-04-12T10:54:25.546Z,19.49
2023-04-12T10:57:49.519Z,22.29
2023-04-12T11:00:58.481Z,21.43
2023-04-12T11:04:16.846Z,20.52
2023-04-12T11:07:19.287Z,20.81
2023-04-12T11:10:21.889Z,18.00
2023-04-12T11:13:23.948Z,19.04
2023-04-12T11:16:26.145Z,18.31
2023-04-12T11:19:28.398Z,18.83
2023-04-12T11:22:31.783Z,19.41
2023-04-12T11:25:33.806Z,20.00
2023-04-12T11:28:35.983Z,19.52
2023-04-12T11:31:41.037Z,21.51
2023-04-12T11:34:44.065Z,23.26
2023-04-12T11:37:46.328Z,20.58
2023-04-12T11:40:48.488Z,23.59
2023-04-12T11:43:50.637Z,20.54
2023-04-12T11:46:52.750Z,24.02
2023-04-12T11:49:54.906Z,22.84
2023-04-12T11:53:09.032Z,21.77
2023-04-12T11:56:10.923Z,21.49
2023-04-12T11:59:13.136Z,21.55
2023-04-12T12:02:22.634Z,22.41
2023-04-12T12:05:27.330Z,21.94
2023-04-12T12:08:30.182Z,21.45
2023-04-12T12:11:33.188Z,21.79
2023-04-12T12:14:38.089Z,23.67
2023-04-12T12:17:40.572Z,24.85
2023-04-12T12:20:43.359Z,25.32
2023-04-12T12:23:45.819Z,27.13
2023-04-12T12:26:49.621Z,23.74
2023-04-12T12:29:53.458Z,27.55
2023-04-12T12:32:56.536Z,26.11
2023-04-12T12:35:58.798Z,28.37
2023-04-12T12:39:19.046Z,27.38
2023-04-12T12:42:21.332Z,26.34
2023-04-12T12:45:24.117Z,22.44
2023-04-12T12:48:26.155Z,27.58
2023-04-12T12:51:28.513Z,26.72
2023-04-12T12:54:40.095Z,28.76
2023-04-12T13:00:46.120Z,27.76
2023-04-12T13:03:48.132Z,26.27
2023-04-12T13:06:52.778Z,23.41
2023-04-12T13:09:54.755Z,22.19
2023-04-12T13:12:57.007Z,20.23
2023-04-12T13:15:59.051Z,19.20
2023-04-12T13:19:00.943Z,20.66
2023-04-12T13:22:03.177Z,17.69
2023-04-12T13:25:05.657Z,18.31
2023-04-12T13:28:07.573Z,18.63
2023-04-12T13:31:09.935Z,18.88
2023-04-12T13:34:11.869Z,17.64
2023-04-12T13:37:13.806Z,16.89
2023-04-12T13:40:15.979Z,16.65
2023-04-12T13:43:20.077Z,17.72
2023-04-12T13:46:22.181Z,17.04
2023-04-12T13:49:24.212Z,18.10
2023-04-12T13:52:26.347Z,17.76
2023-04-12T13:55:28.453Z,17.09
2023-04-12T13:58:30.452Z,16.95
2023-04-12T14:01:32.930Z,16.65
2023-04-12T14:04:35.010Z,17.32
2023-04-12T14:07:36.883Z,17.17
2023-04-12T14:10:38.823Z,17.30
2023-04-12T14:13:40.703Z,17.25
2023-04-12T14:16:42.662Z,17.40
2023-04-12T14:19:45.050Z,17.20
2023-04-12T14:22:46.927Z,16.72
2023-04-12T14:25:49.917Z,17.45
2023-04-12T14:28:52.196Z,16.65
2023-04-12T14:31:54.168Z,17.37
2023-04-12T14:34:56.217Z,17.69
2023-04-12T14:37:58.109Z,18.27
2023-04-12T14:41:00.181Z,17.89
2023-04-12T14:44:02.295Z,17.40
2023-04-12T14:47:04.196Z,16.87
2023-04-12T14:50:06.531Z,17.66
2023-04-12T14:53:09.934Z,17.66
2023-04-12T14:56:21.058Z,16.86
2023-04-12T14:59:27.303Z,17.46
2023-04-12T15:02:29.615Z,18.33
2023-04-12T15:05:31.884Z,17.93
2023-04-12T15:08:34.947Z,18.60
2023-04-12T15:11:38.466Z,18.60
2023-04-12T15:14:41.114Z,16.88
2023-04-12T15:17:43.158Z,17.00
2023-04-12T15:20:45.193Z,18.11
2023-04-12T15:23:47.462Z,17.32
2023-04-12T15:26:50.898Z,17.68
2023-04-12T15:29:52.884Z,18.06
2023-04-12T15:32:54.862Z,18.69
2023-04-12T15:35:56.922Z,17.49
2023-04-12T15:38:58.832Z,17.54
2023-04-12T15:42:00.941Z,18.11
2023-04-12T15:45:02.888Z,17.32
2023-04-12T15:48:04.702Z,18.37
2023-04-12T15:51:06.853Z,17.18
2023-04-12T15:54:08.793Z,16.62
2023-04-12T15:57:11.224Z,16.77
2023-04-12T16:00:26.934Z,18.14
2023-04-12T16:03:29.143Z,17.26
2023-04-12T16:06:34.756Z,17.25
2023-04-12T16:09:38.162Z,16.76
2023-04-12T16:12:39.977Z,17.48
2023-04-12T16:15:41.941Z,17.08
2023-04-12T16:18:46.980Z,17.69
2023-04-12T16:21:49.003Z,17.75
2023-04-12T16:24:50.945Z,17.25
2023-04-12T16:27:53.028Z,16.95
2023-04-12T16:30:55.397Z,17.08
2023-04-12T16:33:57.454Z,16.67
2023-04-12T16:36:59.312Z,16.97
2023-04-12T16:40:01.302Z,17.68
2023-04-12T16:43:03.850Z,17.74
2023-04-12T16:46:06.249Z,17.10
2023-04-12T16:49:08.317Z,18.09
2023-04-12T16:52:10.341Z,16.78
2023-04-12T16:55:12.496Z,16.34
2023-04-12T16:58:14.740Z,16.96
2023-04-12T17:01:17.573Z,17.29
2023-04-12T17:04:19.865Z,17.16
2023-04-12T17:07:22.487Z,17.09
2023-04-12T17:10:24.951Z,17.09
2023-04-12T17:13:26.926Z,17.42
2023-04-12T17:16:29.176Z,16.35
2023-04-12T17:19:31.193Z,16.15
2023-04-12T17:22:33.136Z,15.86
2023-04-12T17:25:35.187Z,16.07
2023-04-12T17:28:39.474Z,16.76
2023-04-12T17:31:42.010Z,16.21
2023-04-12T17:34:44.942Z,16.41
2023-04-12T17:37:46.915Z,15.58
2023-04-12T17:40:48.826Z,15.67
2023-04-12T17:43:50.881Z,15.77
2023-04-12T17:46:52.738Z,15.26
2023-04-12T17:49:54.634Z,15.74
2023-04-12T17:52:56.995Z,15.59
2023-04-12T17:55:58.921Z,15.39
2023-04-12T17:59:02.148Z,15.72
2023-04-12T18:02:04.240Z,16.42
2023-04-12T18:05:07.593Z,16.40
2023-04-12T18:08:10.043Z,16.47
2023-04-12T18:11:13.071Z,16.04
2023-04-12T18:14:15.099Z,15.86
2023-04-12T18:17:16.981Z,16.00
2023-04-12T18:20:19.059Z,15.89
2023-04-12T18:23:21.532Z,15.79
2023-04-12T18:26:23.574Z,15.87
2023-04-12T18:29:25.886Z,15.48
2023-04-12T18:32:27.863Z,15.70
2023-04-12T18:35:29.754Z,15.39
2023-04-12T18:38:32.902Z,14.66
2023-04-12T18:41:34.893Z,14.72
2023-04-12T18:44:37.780Z,15.28
2023-04-12T18:47:40.588Z,15.28
2023-04-12T18:50:42.442Z,14.93
2023-04-12T18:53:44.402Z,14.84
2023-04-12T18:56:46.358Z,15.03
2023-04-12T18:59:49.050Z,14.88
2023-04-12T19:02:51.322Z,14.99
2023-04-12T19:05:56.792Z,14.57
2023-04-12T19:08:58.757Z,14.40
2023-04-12T19:12:01.541Z,14.29
2023-04-12T19:15:03.637Z,14.65
2023-04-12T19:18:05.670Z,14.99
2023-04-12T19:21:07.741Z,15.24
2023-04-12T19:24:09.691Z,14.99
2023-04-12T19:27:11.581Z,14.79
2023-04-12T19:30:14.823Z,14.86
2023-04-12T19:33:16.753Z,14.34
2023-04-12T19:36:19.201Z,14.63
2023-04-12T19:39:22.796Z,14.62
2023-04-12T19:42:24.655Z,14.43
2023-04-12T19:45:27.343Z,14.52
2023-04-12T19:48:29.993Z,14.34
2023-04-12T19:51:32.404Z,13.69
2023-04-12T19:54:34.392Z,14.16
2023-04-12T19:57:38.102Z,14.11
2023-04-12T20:00:44.785Z,13.69
2023-04-12T20:03:46.914Z,13.14
2023-04-12T20:06:49.494Z,13.71
2023-04-12T20:09:51.483Z,13.48
2023-04-12T20:12:53.361Z,13.44
2023-04-12T20:15:55.405Z,13.68
2023-04-12T20:18:59.033Z,14.11
2023-04-12T20:22:04.130Z,14.02
2023-04-12T20:25:06.328Z,13.51
2023-04-12T20:28:08.970Z,13.30
2023-04-12T20:31:12.847Z,13.64
2023-04-12T20:34:14.871Z,13.27
2023-04-12T20:37:17.292Z,12.93
2023-04-12T20:40:19.474Z,13.42
2023-04-12T20:43:21.358Z,13.10
2023-04-12T20:46:25.938Z,12.92
2023-04-12T20:49:28.199Z,12.74
2023-04-12T20:52:30.363Z,12.33
2023-04-12T20:55:34.960Z,12.64
2023-04-12T20:58:37.485Z,12.85
2023-04-12T21:01:39.457Z,12.81
2023-04-12T21:04:41.826Z,12.74
2023-04-12T21:07:44.005Z,12.14
2023-04-12T21:10:48.264Z,12.24
2023-04-12T21:13:51.076Z,12.69
2023-04-12T21:16:54.341Z,12.24
2023-04-12T21:19:56.253Z,12.57
2023-04-12T21:22:58.246Z,12.91
2023-04-12T21:26:00.193Z,12.28
2023-04-12T21:29:02.688Z,12.61
2023-04-12T21:32:05.775Z,12.58
2023-04-12T21:35:08.097Z,12.75
2023-04-12T21:38:09.930Z,12.46
2023-04-12T21:41:12.616Z,11.89
2023-04-12T21:44:14.454Z,11.89
2023-04-12T21:47:16.703Z,12.45
2023-04-12T21:50:18.633Z,12.19
2023-04-12T21:53:20.500Z,11.83
2023-04-12T21:56:22.440Z,12.34
2023-04-12T21:59:25.441Z,12.01
2023-04-12T22:02:27.606Z,12.41
2023-04-12T22:05:29.874Z,12.60
2023-04-12T22:08:32.999Z,12.43
2023-04-12T22:11:35.693Z,12.14
2023-04-12T22:14:37.862Z,12.29
2023-04-12T22:17:41.061Z,11.74
2023-04-12T22:20:43.143Z,11.75
2023-04-12T22:23:45.723Z,11.77
2023-04-12T22:26:47.686Z,12.46
2023-04-12T22:29:50.584Z,12.48
2023-04-12T22:32:52.844Z,12.03
2023-04-12T22:35:55.150Z,12.02
2023-04-12T22:38:57.099Z,11.91
2023-04-12T22:41:59.411Z,11.92
2023-04-12T22:45:02.465Z,11.60
2023-04-12T22:48:04.448Z,11.78
2023-04-12T22:51:06.704Z,11.32
2023-04-12T22:54:09.678Z,11.59
2023-04-12T22:57:12.622Z,11.63
2023-04-12T23:00:17.025Z,12.54
2023-04-12T23:03:19.683Z,11.43
2023-04-12T23:06:22.112Z,11.80
2023-04-12T23:09:24.318Z,12.24
2023-04-12T23:12:26.280Z,11.60
2023-04-12T23:15:28.266Z,12.57
2023-04-12T23:18:30.450Z,13.30
2023-04-12T23:21:32.616Z,13.13
2023-04-12T23:24:35.761Z,12.12
2023-04-12T23:27:39.144Z,11.93
2023-04-12T23:30:44.276Z,11.59
2023-04-12T23:33:46.462Z,11.54
2023-04-12T23:36:50.134Z,11.83
2023-04-12T23:39:54.720Z,11.64
2023-04-12T23:42:57.555Z,11.29
2023-04-12T23:46:00.666Z,11.65
2023-04-12T23:49:02.556Z,12.01
2023-04-12T23:52:04.600Z,11.93
2023-04-12T23:55:06.776Z,11.70
2023-04-12T23:58:08.932Z,11.58
